sensor_id;sensor_type;location;lat;lon;timestamp;P1;durP1;ratioP1;P2;durP2;ratioP2
61391;SDS011;47261;52.892;5.738;2023-04-25T00:01:03;15.25;;;2.20;;
61391;SDS011;47261;52.892;5.738;2023-04-25T00:03:30;21.00;;;2.38;;
61391;SDS011;47261;52.892;5.738;2023-04-25T00:05:58;21.48;;;3.22;;
61391;SDS011;47261;52.892;5.738;2023-04-25T00:08:28;15.48;;;2.50;;
61391;SDS011;47261;52.892;5.738;2023-04-25T00:10:54;19.42;;;2.38;;
61391;SDS011;47261;52.892;5.738;2023-04-25T00:13:20;12.83;;;2.57;;
61391;SDS011;47261;52.892;5.738;2023-04-25T00:15:46;13.55;;;2.17;;
61391;SDS011;47261;52.892;5.738;2023-04-25T00:18:13;18.17;;;3.00;;
61391;SDS011;47261;52.892;5.738;2023-04-25T00:20:39;20.63;;;3.10;;
61391;SDS011;47261;52.892;5.738;2023-04-25T00:23:05;14.15;;;2.53;;
61391;SDS011;47261;52.892;5.738;2023-04-25T00:25:31;12.30;;;1.67;;
61391;SDS011;47261;52.892;5.738;2023-04-25T00:27:56;15.57;;;2.10;;
61391;SDS011;47261;52.892;5.738;2023-04-25T00:30:22;14.77;;;1.73;;
61391;SDS011;47261;52.892;5.738;2023-04-25T00:32:48;15.53;;;2.53;;
61391;SDS011;47261;52.892;5.738;2023-04-25T00:35:13;17.27;;;2.20;;
61391;SDS011;47261;52.892;5.738;2023-04-25T00:37:39;13.17;;;2.23;;
61391;SDS011;47261;52.892;5.738;2023-04-25T00:40:05;16.00;;;2.28;;
61391;SDS011;47261;52.892;5.738;2023-04-25T00:42:32;11.10;;;2.13;;
61391;SDS011;47261;52.892;5.738;2023-04-25T00:44:58;8.70;;;1.80;;
61391;SDS011;47261;52.892;5.738;2023-04-25T00:47:24;11.13;;;2.25;;
61391;SDS011;47261;52.892;5.738;2023-04-25T00:49:50;14.40;;;2.40;;
61391;SDS011;47261;52.892;5.738;2023-04-25T00:52:18;14.35;;;1.95;;
61391;SDS011;47261;52.892;5.738;2023-04-25T00:54:44;14.57;;;2.45;;
61391;SDS011;47261;52.892;5.738;2023-04-25T00:57:10;16.08;;;2.60;;
61391;SDS011;47261;52.892;5.738;2023-04-25T00:59:36;21.10;;;2.33;;
61391;SDS011;47261;52.892;5.738;2023-04-25T01:02:02;32.47;;;2.60;;
61391;SDS011;47261;52.892;5.738;2023-04-25T01:04:28;14.95;;;2.10;;
61391;SDS011;47261;52.892;5.738;2023-04-25T01:06:54;16.37;;;1.90;;
61391;SDS011;47261;52.892;5.738;2023-04-25T01:09:20;19.27;;;2.83;;
61391;SDS011;47261;52.892;5.738;2023-04-25T01:11:47;14.75;;;2.08;;
61391;SDS011;47261;52.892;5.738;2023-04-25T01:14:14;14.40;;;2.13;;
61391;SDS011;47261;52.892;5.738;2023-04-25T01:16:39;21.03;;;2.37;;
61391;SDS011;47261;52.892;5.738;2023-04-25T01:19:09;20.35;;;2.30;;
61391;SDS011;47261;52.892;5.738;2023-04-25T01:21:38;15.27;;;1.50;;
61391;SDS011;47261;52.892;5.738;2023-04-25T01:24:05;13.88;;;1.80;;
61391;SDS011;47261;52.892;5.738;2023-04-25T01:26:31;12.77;;;1.73;;
61391;SDS011;47261;52.892;5.738;2023-04-25T01:28:58;20.52;;;2.55;;
61391;SDS011;47261;52.892;5.738;2023-04-25T01:31:24;16.05;;;2.38;;
61391;SDS011;47261;52.892;5.738;2023-04-25T01:33:51;14.18;;;2.13;;
61391;SDS011;47261;52.892;5.738;2023-04-25T01:36:17;12.57;;;1.87;;
61391;SDS011;47261;52.892;5.738;2023-04-25T01:38:43;13.60;;;1.70;;
61391;SDS011;47261;52.892;5.738;2023-04-25T01:41:09;16.15;;;2.30;;
61391;SDS011;47261;52.892;5.738;2023-04-25T01:43:35;10.52;;;1.80;;
61391;SDS011;47261;52.892;5.738;2023-04-25T01:46:00;10.10;;;1.57;;
61391;SDS011;47261;52.892;5.738;2023-04-25T01:48:26;13.73;;;1.70;;
61391;SDS011;47261;52.892;5.738;2023-04-25T01:50:52;17.03;;;1.77;;
61391;SDS011;47261;52.892;5.738;2023-04-25T01:53:17;9.70;;;1.50;;
61391;SDS011;47261;52.892;5.738;2023-04-25T01:55:43;11.27;;;1.70;;
61391;SDS011;47261;52.892;5.738;2023-04-25T01:58:09;13.73;;;1.67;;
61391;SDS011;47261;52.892;5.738;2023-04-25T02:00:37;15.30;;;1.85;;
61391;SDS011;47261;52.892;5.738;2023-04-25T02:03:04;16.25;;;1.77;;
61391;SDS011;47261;52.892;5.738;2023-04-25T02:05:36;15.95;;;2.13;;
61391;SDS011;47261;52.892;5.738;2023-04-25T02:08:04;11.25;;;2.00;;
61391;SDS011;47261;52.892;5.738;2023-04-25T02:10:30;9.10;;;1.47;;
61391;SDS011;47261;52.892;5.738;2023-04-25T02:12:57;18.15;;;2.55;;
61391;SDS011;47261;52.892;5.738;2023-04-25T02:15:23;9.18;;;1.50;;
61391;SDS011;47261;52.892;5.738;2023-04-25T02:17:49;10.32;;;1.20;;
61391;SDS011;47261;52.892;5.738;2023-04-25T02:20:15;14.37;;;1.23;;
61391;SDS011;47261;52.892;5.738;2023-04-25T02:22:45;10.02;;;1.23;;
61391;SDS011;47261;52.892;5.738;2023-04-25T02:25:11;9.07;;;1.20;;
61391;SDS011;47261;52.892;5.738;2023-04-25T02:27:37;16.35;;;1.60;;
61391;SDS011;47261;52.892;5.738;2023-04-25T02:30:03;11.00;;;0.97;;
61391;SDS011;47261;52.892;5.738;2023-04-25T02:32:29;13.15;;;2.33;;
61391;SDS011;47261;52.892;5.738;2023-04-25T02:34:55;4.30;;;0.87;;
61391;SDS011;47261;52.892;5.738;2023-04-25T02:37:23;10.98;;;1.02;;
61391;SDS011;47261;52.892;5.738;2023-04-25T02:39:49;3.55;;;0.45;;
61391;SDS011;47261;52.892;5.738;2023-04-25T02:42:15;4.83;;;0.77;;
61391;SDS011;47261;52.892;5.738;2023-04-25T02:44:40;9.38;;;0.50;;
61391;SDS011;47261;52.892;5.738;2023-04-25T02:47:06;11.97;;;1.60;;
61391;SDS011;47261;52.892;5.738;2023-04-25T02:49:32;12.40;;;1.85;;
61391;SDS011;47261;52.892;5.738;2023-04-25T02:51:57;8.37;;;1.03;;
61391;SDS011;47261;52.892;5.738;2023-04-25T02:54:23;4.00;;;0.90;;
61391;SDS011;47261;52.892;5.738;2023-04-25T02:56:48;18.42;;;1.05;;
61391;SDS011;47261;52.892;5.738;2023-04-25T02:59:14;8.32;;;1.00;;
61391;SDS011;47261;52.892;5.738;2023-04-25T03:01:40;10.93;;;1.30;;
61391;SDS011;47261;52.892;5.738;2023-04-25T03:04:06;9.23;;;1.10;;
61391;SDS011;47261;52.892;5.738;2023-04-25T03:06:31;12.23;;;1.25;;
61391;SDS011;47261;52.892;5.738;2023-04-25T03:08:57;6.07;;;0.80;;
61391;SDS011;47261;52.892;5.738;2023-04-25T03:11:25;9.50;;;1.23;;
61391;SDS011;47261;52.892;5.738;2023-04-25T03:13:51;10.47;;;1.23;;
61391;SDS011;47261;52.892;5.738;2023-04-25T03:16:17;12.65;;;1.08;;
61391;SDS011;47261;52.892;5.738;2023-04-25T03:18:42;10.90;;;1.00;;
61391;SDS011;47261;52.892;5.738;2023-04-25T03:21:08;7.00;;;0.73;;
61391;SDS011;47261;52.892;5.738;2023-04-25T03:23:33;6.97;;;0.70;;
61391;SDS011;47261;52.892;5.738;2023-04-25T03:25:59;7.13;;;0.80;;
61391;SDS011;47261;52.892;5.738;2023-04-25T03:28:25;11.98;;;1.33;;
61391;SDS011;47261;52.892;5.738;2023-04-25T03:30:51;9.13;;;1.17;;
61391;SDS011;47261;52.892;5.738;2023-04-25T03:33:16;6.78;;;0.82;;
61391;SDS011;47261;52.892;5.738;2023-04-25T03:35:42;10.73;;;0.77;;
61391;SDS011;47261;52.892;5.738;2023-04-25T03:38:08;5.60;;;0.85;;
61391;SDS011;47261;52.892;5.738;2023-04-25T03:40:33;5.23;;;0.63;;
61391;SDS011;47261;52.892;5.738;2023-04-25T03:42:59;5.85;;;0.70;;
61391;SDS011;47261;52.892;5.738;2023-04-25T03:45:25;4.30;;;0.50;;
61391;SDS011;47261;52.892;5.738;2023-04-25T03:47:51;5.90;;;0.90;;
61391;SDS011;47261;52.892;5.738;2023-04-25T03:50:16;7.10;;;1.10;;
61391;SDS011;47261;52.892;5.738;2023-04-25T03:52:42;11.90;;;0.90;;
61391;SDS011;47261;52.892;5.738;2023-04-25T03:55:08;4.63;;;0.85;;
61391;SDS011;47261;52.892;5.738;2023-04-25T03:57:35;10.40;;;0.90;;
61391;SDS011;47261;52.892;5.738;2023-04-25T04:00:00;9.23;;;0.88;;
61391;SDS011;47261;52.892;5.738;2023-04-25T04:02:26;13.47;;;1.43;;
61391;SDS011;47261;52.892;5.738;2023-04-25T04:04:52;9.65;;;1.00;;
61391;SDS011;47261;52.892;5.738;2023-04-25T04:07:17;11.27;;;0.97;;
61391;SDS011;47261;52.892;5.738;2023-04-25T04:09:43;10.95;;;1.10;;
61391;SDS011;47261;52.892;5.738;2023-04-25T04:12:08;6.30;;;0.70;;
61391;SDS011;47261;52.892;5.738;2023-04-25T04:14:34;6.17;;;0.77;;
61391;SDS011;47261;52.892;5.738;2023-04-25T04:17:00;6.22;;;0.98;;
61391;SDS011;47261;52.892;5.738;2023-04-25T04:19:25;9.13;;;1.23;;
61391;SDS011;47261;52.892;5.738;2023-04-25T04:21:51;11.60;;;0.88;;
61391;SDS011;47261;52.892;5.738;2023-04-25T04:24:17;6.13;;;0.87;;
61391;SDS011;47261;52.892;5.738;2023-04-25T04:26:42;6.03;;;0.82;;
61391;SDS011;47261;52.892;5.738;2023-04-25T04:29:10;4.55;;;0.82;;
61391;SDS011;47261;52.892;5.738;2023-04-25T04:31:35;10.70;;;1.13;;
61391;SDS011;47261;52.892;5.738;2023-04-25T04:34:01;11.73;;;1.00;;
61391;SDS011;47261;52.892;5.738;2023-04-25T04:36:28;7.10;;;1.17;;
61391;SDS011;47261;52.892;5.738;2023-04-25T04:38:54;10.48;;;1.08;;
61391;SDS011;47261;52.892;5.738;2023-04-25T04:41:21;9.75;;;1.05;;
61391;SDS011;47261;52.892;5.738;2023-04-25T04:43:47;8.57;;;0.90;;
61391;SDS011;47261;52.892;5.738;2023-04-25T04:46:13;7.50;;;1.15;;
61391;SDS011;47261;52.892;5.738;2023-04-25T04:48:39;6.18;;;1.10;;
61391;SDS011;47261;52.892;5.738;2023-04-25T04:51:05;8.32;;;1.50;;
61391;SDS011;47261;52.892;5.738;2023-04-25T04:53:31;4.53;;;0.60;;
61391;SDS011;47261;52.892;5.738;2023-04-25T04:55:57;11.02;;;0.70;;
61391;SDS011;47261;52.892;5.738;2023-04-25T04:58:23;5.17;;;0.50;;
61391;SDS011;47261;52.892;5.738;2023-04-25T05:00:48;5.85;;;0.60;;
61391;SDS011;47261;52.892;5.738;2023-04-25T05:03:15;8.63;;;0.82;;
61391;SDS011;47261;52.892;5.738;2023-04-25T05:05:41;4.50;;;0.50;;
61391;SDS011;47261;52.892;5.738;2023-04-25T05:08:06;5.00;;;0.77;;
61391;SDS011;47261;52.892;5.738;2023-04-25T05:10:32;4.40;;;0.57;;
61391;SDS011;47261;52.892;5.738;2023-04-25T05:12:58;15.32;;;0.70;;
61391;SDS011;47261;52.892;5.738;2023-04-25T05:15:23;4.07;;;0.53;;
61391;SDS011;47261;52.892;5.738;2023-04-25T05:17:49;6.70;;;0.60;;
61391;SDS011;47261;52.892;5.738;2023-04-25T05:20:15;8.60;;;0.63;;
61391;SDS011;47261;52.892;5.738;2023-04-25T05:22:41;9.27;;;0.75;;
61391;SDS011;47261;52.892;5.738;2023-04-25T05:25:07;13.67;;;1.07;;
61391;SDS011;47261;52.892;5.738;2023-04-25T05:27:34;7.43;;;0.50;;
61391;SDS011;47261;52.892;5.738;2023-04-25T05:30:00;6.88;;;0.82;;
61391;SDS011;47261;52.892;5.738;2023-04-25T05:32:25;12.00;;;0.90;;
61391;SDS011;47261;52.892;5.738;2023-04-25T05:34:51;10.38;;;0.70;;
61391;SDS011;47261;52.892;5.738;2023-04-25T05:37:17;3.47;;;0.53;;
61391;SDS011;47261;52.892;5.738;2023-04-25T05:39:43;10.57;;;0.88;;
61391;SDS011;47261;52.892;5.738;2023-04-25T05:42:08;14.03;;;1.00;;
61391;SDS011;47261;52.892;5.738;2023-04-25T05:44:34;7.53;;;0.80;;
61391;SDS011;47261;52.892;5.738;2023-04-25T05:46:59;11.90;;;1.27;;
61391;SDS011;47261;52.892;5.738;2023-04-25T05:49:25;6.90;;;0.73;;
61391;SDS011;47261;52.892;5.738;2023-04-25T05:51:51;7.65;;;0.98;;
61391;SDS011;47261;52.892;5.738;2023-04-25T05:54:16;11.53;;;1.00;;
61391;SDS011;47261;52.892;5.738;2023-04-25T05:56:42;8.48;;;0.70;;
61391;SDS011;47261;52.892;5.738;2023-04-25T05:59:08;14.30;;;0.77;;
61391;SDS011;47261;52.892;5.738;2023-04-25T06:01:33;6.38;;;0.57;;
61391;SDS011;47261;52.892;5.738;2023-04-25T06:03:59;11.50;;;1.20;;
61391;SDS011;47261;52.892;5.738;2023-04-25T06:06:25;5.70;;;0.67;;
61391;SDS011;47261;52.892;5.738;2023-04-25T06:08:51;7.13;;;0.80;;
61391;SDS011;47261;52.892;5.738;2023-04-25T06:11:17;10.95;;;1.00;;
61391;SDS011;47261;52.892;5.738;2023-04-25T06:13:43;2.57;;;0.53;;
61391;SDS011;47261;52.892;5.738;2023-04-25T06:16:08;10.40;;;0.80;;
61391;SDS011;47261;52.892;5.738;2023-04-25T06:18:34;7.97;;;1.00;;
61391;SDS011;47261;52.892;5.738;2023-04-25T06:21:00;6.43;;;0.45;;
61391;SDS011;47261;52.892;5.738;2023-04-25T06:23:25;14.57;;;1.17;;
61391;SDS011;47261;52.892;5.738;2023-04-25T06:25:51;10.17;;;0.80;;
61391;SDS011;47261;52.892;5.738;2023-04-25T06:28:17;10.60;;;0.83;;
61391;SDS011;47261;52.892;5.738;2023-04-25T06:30:42;10.27;;;1.17;;
61391;SDS011;47261;52.892;5.738;2023-04-25T06:33:08;8.18;;;0.77;;
61391;SDS011;47261;52.892;5.738;2023-04-25T06:35:34;11.27;;;0.80;;
61391;SDS011;47261;52.892;5.738;2023-04-25T06:38:00;9.82;;;0.93;;
61391;SDS011;47261;52.892;5.738;2023-04-25T06:40:25;9.83;;;0.80;;
61391;SDS011;47261;52.892;5.738;2023-04-25T06:42:51;7.88;;;0.60;;
61391;SDS011;47261;52.892;5.738;2023-04-25T06:45:17;11.43;;;1.07;;
61391;SDS011;47261;52.892;5.738;2023-04-25T06:47:42;12.95;;;0.85;;
61391;SDS011;47261;52.892;5.738;2023-04-25T06:50:08;6.97;;;0.97;;
61391;SDS011;47261;52.892;5.738;2023-04-25T06:52:34;7.90;;;0.65;;
61391;SDS011;47261;52.892;5.738;2023-04-25T06:54:59;4.47;;;0.60;;
61391;SDS011;47261;52.892;5.738;2023-04-25T06:57:25;4.88;;;0.40;;
61391;SDS011;47261;52.892;5.738;2023-04-25T06:59:51;4.50;;;0.60;;
61391;SDS011;47261;52.892;5.738;2023-04-25T07:02:17;6.60;;;0.60;;
61391;SDS011;47261;52.892;5.738;2023-04-25T07:04:42;6.73;;;0.60;;
61391;SDS011;47261;52.892;5.738;2023-04-25T07:07:08;5.47;;;0.30;;
61391;SDS011;47261;52.892;5.738;2023-04-25T07:09:33;10.87;;;0.93;;
61391;SDS011;47261;52.892;5.738;2023-04-25T07:11:59;9.90;;;0.65;;
61391;SDS011;47261;52.892;5.738;2023-04-25T07:14:27;6.20;;;0.80;;
61391;SDS011;47261;52.892;5.738;2023-04-25T07:16:52;9.75;;;0.85;;
61391;SDS011;47261;52.892;5.738;2023-04-25T07:19:20;6.15;;;0.93;;
61391;SDS011;47261;52.892;5.738;2023-04-25T07:21:46;5.50;;;0.20;;
61391;SDS011;47261;52.892;5.738;2023-04-25T07:24:11;7.07;;;0.75;;
61391;SDS011;47261;52.892;5.738;2023-04-25T07:26:37;5.33;;;0.90;;
61391;SDS011;47261;52.892;5.738;2023-04-25T07:29:03;3.80;;;0.68;;
61391;SDS011;47261;52.892;5.738;2023-04-25T07:31:28;5.50;;;0.50;;
61391;SDS011;47261;52.892;5.738;2023-04-25T07:33:54;3.92;;;0.65;;
61391;SDS011;47261;52.892;5.738;2023-04-25T07:36:20;2.33;;;0.40;;
61391;SDS011;47261;52.892;5.738;2023-04-25T07:38:45;2.08;;;0.50;;
61391;SDS011;47261;52.892;5.738;2023-04-25T07:41:11;4.17;;;0.43;;
61391;SDS011;47261;52.892;5.738;2023-04-25T07:43:37;4.22;;;0.52;;
61391;SDS011;47261;52.892;5.738;2023-04-25T07:46:02;3.53;;;0.40;;
61391;SDS011;47261;52.892;5.738;2023-04-25T07:48:29;7.53;;;0.82;;
61391;SDS011;47261;52.892;5.738;2023-04-25T07:50:54;8.00;;;0.60;;
61391;SDS011;47261;52.892;5.738;2023-04-25T07:53:20;8.23;;;0.60;;
61391;SDS011;47261;52.892;5.738;2023-04-25T07:55:46;1.70;;;0.33;;
61391;SDS011;47261;52.892;5.738;2023-04-25T07:58:11;4.38;;;0.60;;
61391;SDS011;47261;52.892;5.738;2023-04-25T08:00:37;5.13;;;0.53;;
61391;SDS011;47261;52.892;5.738;2023-04-25T08:03:03;6.53;;;0.50;;
61391;SDS011;47261;52.892;5.738;2023-04-25T08:05:29;8.03;;;0.43;;
61391;SDS011;47261;52.892;5.738;2023-04-25T08:07:54;9.40;;;1.00;;
61391;SDS011;47261;52.892;5.738;2023-04-25T08:10:21;7.03;;;0.63;;
61391;SDS011;47261;52.892;5.738;2023-04-25T08:12:48;4.68;;;0.55;;
61391;SDS011;47261;52.892;5.738;2023-04-25T08:15:14;3.13;;;0.30;;
61391;SDS011;47261;52.892;5.738;2023-04-25T08:17:39;5.07;;;0.40;;
61391;SDS011;47261;52.892;5.738;2023-04-25T08:20:06;3.72;;;0.50;;
61391;SDS011;47261;52.892;5.738;2023-04-25T08:22:31;3.23;;;0.43;;
61391;SDS011;47261;52.892;5.738;2023-04-25T08:24:57;5.10;;;0.30;;
61391;SDS011;47261;52.892;5.738;2023-04-25T08:27:23;3.20;;;0.30;;
61391;SDS011;47261;52.892;5.738;2023-04-25T08:29:49;5.43;;;0.60;;
61391;SDS011;47261;52.892;5.738;2023-04-25T08:32:15;6.13;;;0.40;;
61391;SDS011;47261;52.892;5.738;2023-04-25T08:34:41;10.32;;;0.73;;
61391;SDS011;47261;52.892;5.738;2023-04-25T08:37:08;8.93;;;0.70;;
61391;SDS011;47261;52.892;5.738;2023-04-25T08:39:35;8.35;;;1.10;;
61391;SDS011;47261;52.892;5.738;2023-04-25T08:42:02;2.33;;;0.30;;
61391;SDS011;47261;52.892;5.738;2023-04-25T08:44:31;5.50;;;0.63;;
61391;SDS011;47261;52.892;5.738;2023-04-25T08:46:58;7.22;;;0.70;;
61391;SDS011;47261;52.892;5.738;2023-04-25T08:49:25;6.68;;;0.60;;
61391;SDS011;47261;52.892;5.738;2023-04-25T08:51:51;6.18;;;0.80;;
61391;SDS011;47261;52.892;5.738;2023-04-25T08:54:19;5.88;;;0.55;;
61391;SDS011;47261;52.892;5.738;2023-04-25T08:56:51;10.07;;;1.53;;
61391;SDS011;47261;52.892;5.738;2023-04-25T08:59:16;4.40;;;0.43;;
61391;SDS011;47261;52.892;5.738;2023-04-25T09:01:43;12.73;;;0.85;;
61391;SDS011;47261;52.892;5.738;2023-04-25T09:04:09;5.65;;;0.60;;
61391;SDS011;47261;52.892;5.738;2023-04-25T09:06:37;10.77;;;0.90;;
61391;SDS011;47261;52.892;5.738;2023-04-25T09:09:03;3.38;;;0.45;;
61391;SDS011;47261;52.892;5.738;2023-04-25T09:11:30;3.92;;;0.40;;
61391;SDS011;47261;52.892;5.738;2023-04-25T09:14:15;5.20;;;0.50;;
61391;SDS011;47261;52.892;5.738;2023-04-25T09:19:24;9.10;;;1.00;;
61391;SDS011;47261;52.892;5.738;2023-04-25T09:21:54;3.25;;;0.30;;
61391;SDS011;47261;52.892;5.738;2023-04-25T09:24:30;6.80;;;0.57;;
61391;SDS011;47261;52.892;5.738;2023-04-25T09:26:59;5.63;;;0.50;;
61391;SDS011;47261;52.892;5.738;2023-04-25T09:29:30;7.75;;;0.75;;
61391;SDS011;47261;52.892;5.738;2023-04-25T09:34:45;9.38;;;0.60;;
61391;SDS011;47261;52.892;5.738;2023-04-25T09:39:57;5.27;;;0.70;;
61391;SDS011;47261;52.892;5.738;2023-04-25T09:42:26;6.72;;;0.85;;
61391;SDS011;47261;52.892;5.738;2023-04-25T09:44:54;4.13;;;0.52;;
61391;SDS011;47261;52.892;5.738;2023-04-25T09:47:22;11.48;;;0.60;;
61391;SDS011;47261;52.892;5.738;2023-04-25T09:49:49;8.93;;;0.57;;
61391;SDS011;47261;52.892;5.738;2023-04-25T09:52:19;9.60;;;0.60;;
61391;SDS011;47261;52.892;5.738;2023-04-25T09:54:49;9.80;;;0.98;;
61391;SDS011;47261;52.892;5.738;2023-04-25T09:57:25;7.13;;;0.75;;
61391;SDS011;47261;52.892;5.738;2023-04-25T09:59:51;8.23;;;0.70;;
61391;SDS011;47261;52.892;5.738;2023-04-25T10:02:19;3.50;;;0.50;;
61391;SDS011;47261;52.892;5.738;2023-04-25T10:04:49;3.83;;;0.50;;
61391;SDS011;47261;52.892;5.738;2023-04-25T10:07:18;8.20;;;0.65;;
61391;SDS011;47261;52.892;5.738;2023-04-25T10:09:45;4.68;;;0.60;;
61391;SDS011;47261;52.892;5.738;2023-04-25T10:12:15;4.88;;;0.55;;
61391;SDS011;47261;52.892;5.738;2023-04-25T10:14:42;4.63;;;0.60;;
61391;SDS011;47261;52.892;5.738;2023-04-25T10:17:08;8.67;;;1.07;;
61391;SDS011;47261;52.892;5.738;2023-04-25T10:19:36;7.28;;;0.73;;
61391;SDS011;47261;52.892;5.738;2023-04-25T10:24:32;6.25;;;0.88;;
61391;SDS011;47261;52.892;5.738;2023-04-25T10:27:00;6.90;;;0.82;;
61391;SDS011;47261;52.892;5.738;2023-04-25T10:29:27;9.47;;;0.80;;
61391;SDS011;47261;52.892;5.738;2023-04-25T10:31:52;7.32;;;1.00;;
61391;SDS011;47261;52.892;5.738;2023-04-25T10:34:18;5.07;;;0.50;;
61391;SDS011;47261;52.892;5.738;2023-04-25T10:36:52;5.30;;;0.53;;
61391;SDS011;47261;52.892;5.738;2023-04-25T10:39:22;5.78;;;0.50;;
61391;SDS011;47261;52.892;5.738;2023-04-25T10:41:52;3.80;;;0.60;;
61391;SDS011;47261;52.892;5.738;2023-04-25T10:44:21;5.07;;;0.52;;
61391;SDS011;47261;52.892;5.738;2023-04-25T10:46:46;4.93;;;0.43;;
61391;SDS011;47261;52.892;5.738;2023-04-25T10:49:28;2.20;;;0.35;;
61391;SDS011;47261;52.892;5.738;2023-04-25T10:52:42;7.53;;;0.75;;
61391;SDS011;47261;52.892;5.738;2023-04-25T10:57:26;3.23;;;0.30;;
61391;SDS011;47261;52.892;5.738;2023-04-25T11:02:42;8.63;;;0.57;;
61391;SDS011;47261;52.892;5.738;2023-04-25T11:05:55;11.10;;;0.95;;
61391;SDS011;47261;52.892;5.738;2023-04-25T11:08:06;8.68;;;0.60;;
61391;SDS011;47261;52.892;5.738;2023-04-25T11:10:36;7.70;;;1.40;;
61391;SDS011;47261;52.892;5.738;2023-04-25T11:13:02;5.28;;;0.40;;
61391;SDS011;47261;52.892;5.738;2023-04-25T11:15:28;8.73;;;1.07;;
61391;SDS011;47261;52.892;5.738;2023-04-25T11:17:54;5.15;;;0.60;;
61391;SDS011;47261;52.892;5.738;2023-04-25T11:20:20;4.97;;;0.98;;
61391;SDS011;47261;52.892;5.738;2023-04-25T11:22:47;1.45;;;0.30;;
61391;SDS011;47261;52.892;5.738;2023-04-25T11:25:14;4.28;;;0.30;;
61391;SDS011;47261;52.892;5.738;2023-04-25T11:27:52;4.57;;;0.30;;
61391;SDS011;47261;52.892;5.738;2023-04-25T11:30:19;2.00;;;0.30;;
61391;SDS011;47261;52.892;5.738;2023-04-25T11:32:46;1.42;;;0.30;;
61391;SDS011;47261;52.892;5.738;2023-04-25T11:35:12;3.75;;;0.32;;
61391;SDS011;47261;52.892;5.738;2023-04-25T11:37:38;5.57;;;0.50;;
61391;SDS011;47261;52.892;5.738;2023-04-25T11:40:05;5.28;;;0.60;;
61391;SDS011;47261;52.892;5.738;2023-04-25T11:42:33;5.30;;;0.40;;
61391;SDS011;47261;52.892;5.738;2023-04-25T11:44:59;5.33;;;0.60;;
61391;SDS011;47261;52.892;5.738;2023-04-25T11:47:31;6.83;;;0.57;;
61391;SDS011;47261;52.892;5.738;2023-04-25T11:50:02;5.30;;;1.00;;
61391;SDS011;47261;52.892;5.738;2023-04-25T11:52:35;7.68;;;0.82;;
61391;SDS011;47261;52.892;5.738;2023-04-25T11:55:15;8.88;;;0.70;;
61391;SDS011;47261;52.892;5.738;2023-04-25T11:57:42;5.10;;;0.50;;
61391;SDS011;47261;52.892;5.738;2023-04-25T12:02:43;4.22;;;0.52;;
61391;SDS011;47261;52.892;5.738;2023-04-25T12:05:11;7.72;;;0.65;;
61391;SDS011;47261;52.892;5.738;2023-04-25T12:07:37;9.10;;;0.88;;
61391;SDS011;47261;52.892;5.738;2023-04-25T12:10:07;5.03;;;0.50;;
61391;SDS011;47261;52.892;5.738;2023-04-25T12:12:34;5.93;;;0.50;;
61391;SDS011;47261;52.892;5.738;2023-04-25T12:15:14;4.82;;;0.60;;
61391;SDS011;47261;52.892;5.738;2023-04-25T12:17:44;7.95;;;0.50;;
61391;SDS011;47261;52.892;5.738;2023-04-25T12:20:20;8.13;;;0.60;;
61391;SDS011;47261;52.892;5.738;2023-04-25T12:22:49;6.97;;;0.95;;
61391;SDS011;47261;52.892;5.738;2023-04-25T12:28:19;18.45;;;1.23;;
61391;SDS011;47261;52.892;5.738;2023-04-25T12:33:23;5.60;;;0.43;;
61391;SDS011;47261;52.892;5.738;2023-04-25T12:35:50;6.75;;;0.75;;
61391;SDS011;47261;52.892;5.738;2023-04-25T12:38:23;2.55;;;0.20;;
61391;SDS011;47261;52.892;5.738;2023-04-25T12:40:52;6.10;;;0.85;;
61391;SDS011;47261;52.892;5.738;2023-04-25T12:43:18;7.45;;;0.90;;
61391;SDS011;47261;52.892;5.738;2023-04-25T12:45:45;7.47;;;0.70;;
61391;SDS011;47261;52.892;5.738;2023-04-25T12:48:13;8.00;;;1.20;;
61391;SDS011;47261;52.892;5.738;2023-04-25T12:50:39;5.00;;;0.40;;
61391;SDS011;47261;52.892;5.738;2023-04-25T12:53:06;3.23;;;0.60;;
61391;SDS011;47261;52.892;5.738;2023-04-25T12:55:31;4.57;;;0.50;;
61391;SDS011;47261;52.892;5.738;2023-04-25T12:57:57;2.73;;;0.20;;
61391;SDS011;47261;52.892;5.738;2023-04-25T13:00:23;4.28;;;0.40;;
61391;SDS011;47261;52.892;5.738;2023-04-25T13:02:48;5.20;;;0.50;;
61391;SDS011;47261;52.892;5.738;2023-04-25T13:05:14;7.30;;;0.90;;
61391;SDS011;47261;52.892;5.738;2023-04-25T13:07:40;5.60;;;0.63;;
61391;SDS011;47261;52.892;5.738;2023-04-25T13:10:06;7.77;;;0.87;;
61391;SDS011;47261;52.892;5.738;2023-04-25T13:12:32;4.18;;;0.60;;
61391;SDS011;47261;52.892;5.738;2023-04-25T13:14:58;9.03;;;1.27;;
61391;SDS011;47261;52.892;5.738;2023-04-25T13:17:23;4.07;;;0.63;;
61391;SDS011;47261;52.892;5.738;2023-04-25T13:19:49;7.10;;;0.63;;
61391;SDS011;47261;52.892;5.738;2023-04-25T13:22:15;6.70;;;0.77;;
61391;SDS011;47261;52.892;5.738;2023-04-25T13:24:42;4.63;;;0.50;;
61391;SDS011;47261;52.892;5.738;2023-04-25T13:27:08;7.53;;;1.00;;
61391;SDS011;47261;52.892;5.738;2023-04-25T13:29:33;4.20;;;0.80;;
61391;SDS011;47261;52.892;5.738;2023-04-25T13:32:00;5.68;;;0.90;;
61391;SDS011;47261;52.892;5.738;2023-04-25T13:34:27;5.90;;;0.60;;
61391;SDS011;47261;52.892;5.738;2023-04-25T13:36:53;2.22;;;0.50;;
61391;SDS011;47261;52.892;5.738;2023-04-25T13:39:19;4.40;;;0.70;;
61391;SDS011;47261;52.892;5.738;2023-04-25T13:41:45;5.87;;;0.60;;
61391;SDS011;47261;52.892;5.738;2023-04-25T13:44:10;4.18;;;0.50;;
61391;SDS011;47261;52.892;5.738;2023-04-25T13:46:36;5.00;;;0.57;;
61391;SDS011;47261;52.892;5.738;2023-04-25T13:49:02;6.50;;;0.73;;
61391;SDS011;47261;52.892;5.738;2023-04-25T13:51:28;2.90;;;0.70;;
61391;SDS011;47261;52.892;5.738;2023-04-25T13:53:55;6.30;;;1.07;;
61391;SDS011;47261;52.892;5.738;2023-04-25T13:56:21;5.05;;;0.90;;
61391;SDS011;47261;52.892;5.738;2023-04-25T13:58:48;7.68;;;0.80;;
61391;SDS011;47261;52.892;5.738;2023-04-25T14:01:17;7.53;;;0.95;;
61391;SDS011;47261;52.892;5.738;2023-04-25T14:03:43;9.30;;;0.98;;
61391;SDS011;47261;52.892;5.738;2023-04-25T14:06:09;7.27;;;1.13;;
61391;SDS011;47261;52.892;5.738;2023-04-25T14:08:36;3.03;;;0.57;;
61391;SDS011;47261;52.892;5.738;2023-04-25T14:11:02;10.63;;;1.10;;
61391;SDS011;47261;52.892;5.738;2023-04-25T14:13:28;6.82;;;0.57;;
61391;SDS011;47261;52.892;5.738;2023-04-25T14:15:53;5.10;;;0.50;;
61391;SDS011;47261;52.892;5.738;2023-04-25T14:18:19;8.25;;;1.00;;
61391;SDS011;47261;52.892;5.738;2023-04-25T14:20:45;5.20;;;0.60;;
61391;SDS011;47261;52.892;5.738;2023-04-25T14:23:11;3.08;;;0.50;;
61391;SDS011;47261;52.892;5.738;2023-04-25T14:25:36;5.90;;;0.97;;
61391;SDS011;47261;52.892;5.738;2023-04-25T14:28:02;10.30;;;0.93;;
61391;SDS011;47261;52.892;5.738;2023-04-25T14:30:28;10.98;;;0.90;;
61391;SDS011;47261;52.892;5.738;2023-04-25T14:32:54;6.33;;;0.60;;
61391;SDS011;47261;52.892;5.738;2023-04-25T14:35:20;7.28;;;0.63;;
61391;SDS011;47261;52.892;5.738;2023-04-25T14:37:46;3.45;;;0.57;;
61391;SDS011;47261;52.892;5.738;2023-04-25T14:40:11;2.73;;;0.50;;
61391;SDS011;47261;52.892;5.738;2023-04-25T14:42:40;2.92;;;0.55;;
61391;SDS011;47261;52.892;5.738;2023-04-25T14:45:06;8.32;;;0.40;;
61391;SDS011;47261;52.892;5.738;2023-04-25T14:47:33;9.87;;;0.87;;
61391;SDS011;47261;52.892;5.738;2023-04-25T14:49:59;5.97;;;0.80;;
61391;SDS011;47261;52.892;5.738;2023-04-25T14:52:26;5.18;;;0.60;;
61391;SDS011;47261;52.892;5.738;2023-04-25T14:54:52;9.23;;;0.60;;
61391;SDS011;47261;52.892;5.738;2023-04-25T14:57:18;8.67;;;0.77;;
61391;SDS011;47261;52.892;5.738;2023-04-25T14:59:43;8.05;;;0.60;;
61391;SDS011;47261;52.892;5.738;2023-04-25T15:02:09;7.37;;;0.53;;
61391;SDS011;47261;52.892;5.738;2023-04-25T15:04:35;11.98;;;1.00;;